createdAt,value
2018-08-12T00:00:11.146Z,100013.48
2018-08-12T00:02:39.827Z,100017.16
2018-08-12T00:05:08.526Z,100014.27
2018-08-12T00:07:37.235Z,100018.76
2018-08-12T00:10:08.131Z,100009.87
2018-08-12T00:12:36.928Z,100011.27
2018-08-12T00:15:06.568Z,100008.30
2018-08-12T00:17:35.228Z,100000.48
2018-08-12T00:20:03.974Z,100005.63
2018-08-12T00:22:32.701Z,100002.74
2018-08-12T00:25:01.420Z,100009.33
2018-08-12T00:27:30.130Z,100006.63
2018-08-12T00:29:58.860Z,100006.42
2018-08-12T00:32:27.610Z,100002.75
2018-08-12T00:34:56.356Z,100009.41
2018-08-12T00:37:25.699Z,100009.73
2018-08-12T00:39:54.404Z,100011.53
2018-08-12T00:42:23.137Z,100013.79
2018-08-12T00:44:51.837Z,100013.69
2018-08-12T00:47:20.541Z,100009.36
2018-08-12T00:49:49.266Z,100012.63
2018-08-12T00:52:17.933Z,100010.40
2018-08-12T00:54:46.701Z,100009.23
2018-08-12T00:57:15.493Z,100009.87
2018-08-12T00:59:44.193Z,100009.02
2018-08-12T01:02:12.870Z,100011.98
2018-08-12T01:04:41.559Z,100005.31
2018-08-12T01:07:11.061Z,100011.36
2018-08-12T01:09:39.799Z,100010.24
2018-08-12T01:12:08.553Z,100009.44
2018-08-12T01:14:37.248Z,100010.50
2018-08-12T01:17:06.039Z,100008.70
2018-08-12T01:19:34.736Z,100013.41
2018-08-12T01:22:03.700Z,100013.28
2018-08-12T01:24:32.440Z,100022.09
2018-08-12T01:27:01.168Z,100019.89
2018-08-12T01:29:29.892Z,100016.82
2018-08-12T01:31:58.644Z,100009.19
2018-08-12T01:34:27.338Z,100005.35
2018-08-12T01:36:56.015Z,100008.56
2018-08-12T01:39:24.654Z,100007.05
2018-08-12T01:41:53.426Z,100005.23
2018-08-12T01:44:22.174Z,100010.59
2018-08-12T01:46:50.894Z,100014.31
2018-08-12T01:49:19.914Z,100014.39
2018-08-12T01:51:48.678Z,100008.03
2018-08-12T01:54:17.347Z,100002.92
2018-08-12T01:56:46.061Z,99998.56
2018-08-12T01:59:14.735Z,100002.60
2018-08-12T02:01:43.398Z,99999.46
2018-08-12T02:04:12.138Z,100005.06
2018-08-12T02:06:40.795Z,100000.78
2018-08-12T02:09:10.558Z,99999.71
2018-08-12T02:11:39.406Z,99996.47
2018-08-12T02:14:08.555Z,99994.72
2018-08-12T02:16:37.864Z,99998.16
2018-08-12T02:19:06.857Z,99999.30
2018-08-12T02:21:35.534Z,100003.34
2018-08-12T02:24:04.257Z,99998.14
2018-08-12T02:26:32.930Z,100001.26
2018-08-12T02:29:01.585Z,100000.95
2018-08-12T02:31:30.303Z,99997.25
2018-08-12T02:33:59.157Z,99997.95
2018-08-12T02:36:27.874Z,99996.37
2018-08-12T02:38:56.624Z,99994.56
2018-08-12T02:41:25.379Z,99988.58
2018-08-12T02:43:54.050Z,99997.89
2018-08-12T02:46:22.858Z,99988.80
2018-08-12T02:48:52.299Z,99991.77
2018-08-12T02:51:20.981Z,99987.78
2018-08-12T02:53:49.709Z,99985.02
2018-08-12T02:56:18.440Z,99991.51
2018-08-12T02:58:47.127Z,99988.96
2018-08-12T03:01:18.798Z,99984.54
2018-08-12T03:03:47.494Z,99983.50
2018-08-12T03:06:16.157Z,99980.51
2018-08-12T03:08:44.816Z,99984.95
2018-08-12T03:11:13.645Z,99982.12
2018-08-12T03:13:42.416Z,99981.99
2018-08-12T03:16:11.217Z,99980.96
2018-08-12T03:18:39.894Z,99980.44
2018-08-12T03:21:08.578Z,99974.20
2018-08-12T03:23:37.318Z,99971.25
2018-08-12T03:26:06.040Z,99969.77
2018-08-12T03:28:34.750Z,99971.61
2018-08-12T03:31:03.630Z,99983.47
2018-08-12T03:33:32.274Z,99975.55
2018-08-12T03:36:00.965Z,99976.59
2018-08-12T03:38:29.602Z,99976.13
2018-08-12T03:40:58.255Z,99974.98
2018-08-12T03:43:26.908Z,99974.38
2018-08-12T03:45:55.535Z,99975.39
2018-08-12T03:48:24.126Z,99974.22
2018-08-12T03:50:52.749Z,99974.82
2018-08-12T03:53:21.454Z,99974.94
2018-08-12T03:55:50.199Z,99976.36
2018-08-12T03:58:18.811Z,99973.89
2018-08-12T04:00:47.447Z,99975.88
2018-08-12T04:03:16.076Z,99975.02
2018-08-12T04:05:44.749Z,99972.76
2018-08-12T04:08:13.398Z,99976.28
2018-08-12T04:10:42.074Z,99969.70
2018-08-12T04:13:10.742Z,99966.45
2018-08-12T04:15:39.363Z,99970.42
2018-08-12T04:18:08.045Z,99966.59
2018-08-12T04:20:36.710Z,99962.58
2018-08-12T04:23:05.346Z,99967.91
2018-08-12T04:25:40.349Z,99966.05
2018-08-12T04:28:08.998Z,99968.47
2018-08-12T04:30:37.659Z,99973.39
2018-08-12T04:33:06.320Z,99964.43
2018-08-12T04:35:34.942Z,99970.33
2018-08-12T04:38:03.568Z,99968.84
2018-08-12T04:40:32.253Z,99968.62
2018-08-12T04:43:00.873Z,99975.98
2018-08-12T04:45:29.496Z,99974.19
2018-08-12T04:47:58.141Z,99971.59
2018-08-12T04:50:26.874Z,99979.31
2018-08-12T04:52:55.467Z,99974.34
2018-08-12T04:55:24.104Z,99971.00
2018-08-12T04:57:52.750Z,99978.94
2018-08-12T05:00:21.385Z,99972.53
2018-08-12T05:02:50.022Z,99974.98
2018-08-12T05:05:18.650Z,99970.17
2018-08-12T05:07:47.236Z,99976.88
2018-08-12T05:10:15.872Z,99972.63
2018-08-12T05:12:44.459Z,99968.03
2018-08-12T05:15:13.145Z,99971.00
2018-08-12T05:17:41.780Z,99980.34
2018-08-12T05:20:11.522Z,99982.18
2018-08-12T05:22:40.606Z,99984.78
2018-08-12T05:25:09.332Z,99984.23
2018-08-12T05:27:38.017Z,99987.23
2018-08-12T05:30:08.567Z,99994.25
2018-08-12T05:32:37.254Z,99997.19
2018-08-12T05:35:09.139Z,99998.80
2018-08-12T05:37:37.912Z,99993.34
2018-08-12T05:40:08.482Z,99997.48
2018-08-12T05:42:37.309Z,100001.39
2018-08-12T05:45:07.606Z,99994.89
2018-08-12T05:47:36.353Z,99999.55
2018-08-12T05:50:05.844Z,100000.45
2018-08-12T05:52:34.545Z,100002.30
2018-08-12T05:55:03.300Z,100003.05
2018-08-12T05:57:31.983Z,100001.29
2018-08-12T06:00:00.623Z,99993.70
2018-08-12T06:02:29.259Z,99996.16
2018-08-12T06:04:58.022Z,100000.28
2018-08-12T06:07:26.733Z,99997.30
2018-08-12T06:09:55.443Z,99998.58
2018-08-12T06:12:24.247Z,99994.87
2018-08-12T06:14:53.002Z,99987.25
2018-08-12T06:17:21.759Z,99987.84
2018-08-12T06:19:50.486Z,99988.02
2018-08-12T06:22:20.175Z,99991.82
2018-08-12T06:24:48.984Z,99992.94
2018-08-12T06:27:17.889Z,99992.70
2018-08-12T06:29:46.876Z,99986.49
2018-08-12T06:32:15.669Z,99986.66
2018-08-12T06:34:44.530Z,99985.75
2018-08-12T06:37:13.691Z,99984.38
2018-08-12T06:39:42.462Z,99984.94
2018-08-12T06:42:11.166Z,99989.17
2018-08-12T06:44:39.857Z,99984.91
2018-08-12T06:47:08.553Z,99983.75
2018-08-12T06:49:37.322Z,99978.63
2018-08-12T06:52:06.064Z,99971.95
2018-08-12T06:54:34.669Z,99971.73
2018-08-12T06:57:03.352Z,99967.55
2018-08-12T06:59:32.101Z,99963.73
2018-08-12T07:02:00.781Z,99955.73
2018-08-12T07:04:30.399Z,99955.71
2018-08-12T07:06:59.193Z,99950.23
2018-08-12T07:09:27.842Z,99950.31
2018-08-12T07:11:56.542Z,99953.78
2018-08-12T07:14:25.265Z,99953.84
2018-08-12T07:16:53.945Z,99947.87
2018-08-12T07:19:22.655Z,99945.53
2018-08-12T07:21:51.335Z,99950.73
2018-08-12T07:24:20.044Z,99954.00
2018-08-12T07:26:48.709Z,99957.53
2018-08-12T07:29:17.436Z,99956.36
2018-08-12T07:31:46.141Z,99958.41
2018-08-12T07:34:15.095Z,99958.79
2018-08-12T07:36:44.025Z,99961.28
2018-08-12T07:39:12.674Z,99961.47
2018-08-12T07:41:41.514Z,99957.53
2018-08-12T07:44:10.192Z,99952.23
2018-08-12T07:46:38.894Z,99948.75
2018-08-12T07:49:07.605Z,99953.58
2018-08-12T07:51:36.238Z,99956.16
2018-08-12T07:54:05.066Z,99946.27
2018-08-12T07:56:33.921Z,99938.42
2018-08-12T07:59:02.730Z,99929.14
2018-08-12T08:01:31.603Z,99932.34
2018-08-12T08:04:02.324Z,99933.33
2018-08-12T08:06:33.120Z,99936.84
2018-08-12T08:09:01.926Z,99937.28
2018-08-12T08:11:30.627Z,99939.52
2018-08-12T08:13:59.303Z,99939.95
2018-08-12T08:16:28.329Z,99942.79
2018-08-12T08:18:57.084Z,99935.70
2018-08-12T08:21:25.852Z,99936.54
2018-08-12T08:23:54.549Z,99928.32
2018-08-12T08:26:23.224Z,99929.30
2018-08-12T08:28:53.457Z,99920.86
2018-08-12T08:31:22.267Z,99919.44
2018-08-12T08:33:50.916Z,99914.83
2018-08-12T08:36:19.625Z,99918.40
2018-08-12T08:38:48.350Z,99910.78
2018-08-12T08:41:17.037Z,99914.41
2018-08-12T08:43:45.694Z,99911.41
2018-08-12T08:46:14.473Z,99911.86
2018-08-12T08:48:43.156Z,99910.39
2018-08-12T08:51:11.858Z,99904.58
2018-08-12T08:53:40.510Z,99892.44
2018-08-12T08:56:09.242Z,99897.13
2018-08-12T08:58:37.910Z,99891.29
2018-08-12T09:01:12.083Z,99899.07
2018-08-12T09:03:40.779Z,99897.76
2018-08-12T09:06:09.451Z,99901.47
2018-08-12T09:08:38.275Z,99900.11
2018-08-12T09:11:06.963Z,99896.78
2018-08-12T09:13:35.702Z,99896.92
2018-08-12T09:16:04.511Z,99893.08
2018-08-12T09:18:33.169Z,99892.75
2018-08-12T09:21:01.829Z,99894.16
2018-08-12T09:23:30.547Z,99890.12
2018-08-12T09:25:59.168Z,99892.28
2018-08-12T09:28:28.126Z,99886.78
2018-08-12T09:30:56.821Z,99889.52
2018-08-12T09:33:25.500Z,99885.38
2018-08-12T09:35:54.396Z,99880.83
2018-08-12T09:38:23.101Z,99877.96
2018-08-12T09:40:51.858Z,99878.92
2018-08-12T09:43:20.514Z,99876.06
2018-08-12T09:45:49.188Z,99864.95
2018-08-12T09:48:17.925Z,99864.70
2018-08-12T09:50:46.554Z,99868.17
2018-08-12T09:53:15.625Z,99857.98
2018-08-12T09:55:44.273Z,99858.50
2018-08-12T09:58:12.994Z,99851.92
2018-08-12T10:00:42.000Z,99848.79
2018-08-12T10:03:11.351Z,99843.98
2018-08-12T10:05:40.091Z,99838.97
2018-08-12T10:08:08.877Z,99833.13
2018-08-12T10:10:37.585Z,99835.26
2018-08-12T10:13:06.444Z,99830.14
2018-08-12T10:15:35.201Z,99834.30
2018-08-12T10:18:04.756Z,99824.27
2018-08-12T10:20:33.646Z,99812.63
2018-08-12T10:23:02.418Z,99813.77
2018-08-12T10:25:31.116Z,99813.97
2018-08-12T10:27:59.794Z,99810.20
2018-08-12T10:30:28.563Z,99814.62
2018-08-12T10:32:57.271Z,99810.80
2018-08-12T10:35:25.975Z,99806.46
2018-08-12T10:37:54.615Z,99802.92
2018-08-12T10:40:23.333Z,99802.69
2018-08-12T10:42:52.049Z,99803.08
2018-08-12T10:45:20.737Z,99804.69
2018-08-12T10:47:49.496Z,99792.54
2018-08-12T10:50:19.419Z,99786.26
2018-08-12T10:52:48.731Z,99784.64
2018-08-12T10:55:20.058Z,99792.17
2018-08-12T10:57:48.829Z,99792.66
2018-08-12T11:00:20.500Z,99785.85
2018-08-12T11:02:49.297Z,99787.13
2018-08-12T11:05:18.202Z,99784.56
2018-08-12T11:07:49.674Z,99779.80
2018-08-12T11:10:18.497Z,99785.28
2018-08-12T11:12:47.276Z,99777.27
2018-08-12T11:15:15.959Z,99770.73
2018-08-12T11:17:44.657Z,99768.88
2018-08-12T11:20:13.393Z,99775.62
2018-08-12T11:22:42.252Z,99762.91
2018-08-12T11:25:12.069Z,99761.84
2018-08-12T11:27:43.677Z,99756.41
2018-08-12T11:30:15.078Z,99745.16
2018-08-12T11:32:43.791Z,99739.94
2018-08-12T11:35:14.285Z,99739.05
2018-08-12T11:37:43.722Z,99729.64
2018-08-12T11:40:13.458Z,99725.92
2018-08-12T11:42:42.243Z,99732.15
2018-08-12T11:45:15.570Z,99728.31
2018-08-12T11:47:44.806Z,99724.31
2018-08-12T11:50:14.092Z,99721.16
2018-08-12T11:52:43.963Z,99722.52
2018-08-12T11:55:13.839Z,99720.11
2018-08-12T11:57:42.553Z,99712.61
2018-08-12T12:00:15.897Z,99706.98
2018-08-12T12:02:45.520Z,99713.20
2018-08-12T12:05:14.396Z,99704.00
2018-08-12T12:07:43.590Z,99694.50
2018-08-12T12:10:14.554Z,99695.87
2018-08-12T12:12:44.342Z,99689.03
2018-08-12T12:15:13.870Z,99681.53
2018-08-12T12:17:42.976Z,99665.95
2018-08-12T12:20:12.494Z,99673.47
2018-08-12T12:22:42.067Z,99678.81
2018-08-12T12:25:12.069Z,99674.84
2018-08-12T12:27:40.759Z,99673.91
2018-08-12T12:30:12.114Z,99663.27
2018-08-12T12:32:40.799Z,99660.81
2018-08-12T12:35:09.510Z,99665.19
2018-08-12T12:37:38.517Z,99657.21
2018-08-12T12:40:08.479Z,99661.72
2018-08-12T12:42:37.215Z,99644.42
2018-08-12T12:45:07.739Z,99635.66
2018-08-12T12:47:37.340Z,99634.69
2018-08-12T12:50:08.912Z,99627.41
2018-08-12T12:52:37.970Z,99629.23
2018-08-12T12:55:06.914Z,99624.22
2018-08-12T12:57:35.598Z,99614.73
2018-08-12T13:00:05.655Z,99608.56
2018-08-12T13:02:34.586Z,99604.16
2018-08-12T13:05:03.274Z,99609.27
2018-08-12T13:07:31.966Z,99595.42
2018-08-12T13:10:00.598Z,99596.23
2018-08-12T13:12:29.284Z,99602.48
2018-08-12T13:14:57.945Z,99593.04
2018-08-12T13:17:26.577Z,99580.92
2018-08-12T13:19:55.298Z,99571.58
2018-08-12T13:22:23.980Z,99568.27
2018-08-12T13:24:52.608Z,99571.59
2018-08-12T13:27:21.266Z,99559.48
2018-08-12T13:29:49.904Z,99561.87
2018-08-12T13:32:18.514Z,99561.27
2018-08-12T13:34:47.225Z,99548.39
2018-08-12T13:37:15.869Z,99544.58
2018-08-12T13:39:44.556Z,99553.17
2018-08-12T13:42:13.308Z,99540.73
2018-08-12T13:44:41.971Z,99541.19
2018-08-12T13:47:10.603Z,99529.13
2018-08-12T13:49:39.230Z,99521.78
2018-08-12T13:52:07.914Z,99528.37
2018-08-12T13:54:36.525Z,99522.68
2018-08-12T13:57:05.222Z,99518.53
2018-08-12T13:59:33.843Z,99505.14
2018-08-12T14:02:02.471Z,99499.05
2018-08-12T14:04:32.175Z,99500.51
2018-08-12T14:07:00.834Z,99490.75
2018-08-12T14:09:29.448Z,99490.23
2018-08-12T14:11:58.137Z,99486.19
2018-08-12T14:14:26.841Z,99480.47
2018-08-12T14:16:55.593Z,99479.57
2018-08-12T14:19:24.266Z,99478.42
2018-08-12T14:21:52.953Z,99473.71
2018-08-12T14:24:21.632Z,99472.09
2018-08-12T14:26:56.910Z,99470.69
2018-08-12T14:29:25.549Z,99463.95
2018-08-12T14:31:54.260Z,99465.88
2018-08-12T14:34:22.894Z,99463.88
2018-08-12T14:36:51.541Z,99448.41
2018-08-12T14:39:20.174Z,99450.69
2018-08-12T14:41:48.865Z,99452.37
2018-08-12T14:44:17.516Z,99443.56
2018-08-12T14:46:46.143Z,99449.38
2018-08-12T14:49:14.791Z,99446.92
2018-08-12T14:51:43.551Z,99457.55
2018-08-12T14:54:12.203Z,99447.13
2018-08-12T14:56:40.816Z,99444.34
2018-08-12T14:59:09.566Z,99436.04
2018-08-12T15:01:38.158Z,99438.52
2018-08-12T15:04:06.817Z,99436.27
2018-08-12T15:06:35.665Z,99426.52
2018-08-12T15:09:06.317Z,99424.28
2018-08-12T15:11:35.109Z,99417.38
2018-08-12T15:14:03.922Z,99416.14
2018-08-12T15:16:32.523Z,99406.87
2018-08-12T15:19:01.415Z,99410.92
2018-08-12T15:21:29.999Z,99408.39
2018-08-12T15:23:58.758Z,99404.55
2018-08-12T15:26:27.430Z,99404.30
2018-08-12T15:28:56.100Z,99407.16
2018-08-12T15:31:24.765Z,99405.70
2018-08-12T15:33:53.440Z,99399.23
2018-08-12T15:36:22.178Z,99394.60
2018-08-12T15:38:50.746Z,99398.03
2018-08-12T15:41:19.360Z,99386.25
2018-08-12T15:43:48.070Z,99379.05
2018-08-12T15:46:16.762Z,99374.91
2018-08-12T15:48:45.400Z,99374.39
2018-08-12T15:51:14.138Z,99371.13
2018-08-12T15:53:42.677Z,99372.00
2018-08-12T15:56:11.361Z,99370.21
2018-08-12T15:58:39.957Z,99364.15
2018-08-12T16:01:08.638Z,99362.41
2018-08-12T16:03:37.358Z,99356.03
2018-08-12T16:06:06.021Z,99351.16
2018-08-12T16:08:34.682Z,99346.89
2018-08-12T16:11:03.339Z,99346.91
2018-08-12T16:13:31.977Z,99349.19
2018-08-12T16:16:00.713Z,99339.34
2018-08-12T16:18:29.449Z,99343.31
2018-08-12T16:20:58.045Z,99340.58
2018-08-12T16:23:26.748Z,99341.16
2018-08-12T16:25:55.386Z,99340.22
2018-08-12T16:28:24.382Z,99331.02
2018-08-12T16:30:53.022Z,99331.11
2018-08-12T16:33:21.744Z,99330.52
2018-08-12T16:35:50.391Z,99325.78
2018-08-12T16:38:19.097Z,99324.50
2018-08-12T16:40:47.819Z,99321.50
2018-08-12T16:43:16.433Z,99321.38
2018-08-12T16:45:45.086Z,99321.85
2018-08-12T16:48:13.763Z,99320.19
2018-08-12T16:50:42.427Z,99313.36
2018-08-12T16:53:11.090Z,99313.17
2018-08-12T16:55:39.747Z,99297.97
2018-08-12T16:58:08.455Z,99300.77
2018-08-12T17:00:37.158Z,99305.00
2018-08-12T17:03:05.981Z,99301.67
2018-08-12T17:05:34.626Z,99296.73
2018-08-12T17:08:03.283Z,99294.56
2018-08-12T17:10:31.964Z,99290.47
2018-08-12T17:13:00.625Z,99292.93
2018-08-12T17:15:29.226Z,99287.78
2018-08-12T17:17:57.998Z,99286.87
2018-08-12T17:20:26.629Z,99287.55
2018-08-12T17:22:55.266Z,99276.27
2018-08-12T17:25:24.004Z,99278.14
2018-08-12T17:27:52.677Z,99272.88
2018-08-12T17:30:21.345Z,99280.76
2018-08-12T17:32:49.926Z,99279.21
2018-08-12T17:35:18.579Z,99279.20
2018-08-12T17:37:47.336Z,99280.66
2018-08-12T17:40:16.476Z,99277.75
2018-08-12T17:42:45.172Z,99284.06
2018-08-12T17:45:14.334Z,99281.81
2018-08-12T17:47:43.249Z,99269.52
2018-08-12T17:50:13.264Z,99279.36
2018-08-12T17:52:42.244Z,99277.95
2018-08-12T17:55:11.303Z,99280.74
2018-08-12T17:57:40.119Z,99282.86
2018-08-12T18:00:11.688Z,99279.06
2018-08-12T18:02:40.709Z,99276.06
2018-08-12T18:05:09.958Z,99283.33
2018-08-12T18:07:39.474Z,99274.81
2018-08-12T18:10:11.005Z,99280.38
2018-08-12T18:12:39.946Z,99278.10
2018-08-12T18:15:10.601Z,99274.63
2018-08-12T18:17:40.154Z,99280.25
2018-08-12T18:20:09.404Z,99283.34
2018-08-12T18:22:38.360Z,99272.44
2018-08-12T18:25:09.266Z,99280.73
2018-08-12T18:27:38.148Z,99281.45
2018-08-12T18:30:10.625Z,99274.17
2018-08-12T18:32:39.376Z,99276.86
2018-08-12T18:35:13.289Z,99277.22
2018-08-12T18:37:42.515Z,99279.54
2018-08-12T18:40:12.217Z,99280.00
2018-08-12T18:42:41.133Z,99283.91
2018-08-12T18:45:09.950Z,99277.97
2018-08-12T18:47:38.839Z,99275.54
2018-08-12T18:50:08.964Z,99285.88
2018-08-12T18:52:37.818Z,99278.95
2018-08-12T18:55:08.013Z,99285.41
2018-08-12T18:57:36.825Z,99285.36
2018-08-12T19:00:06.768Z,99282.56
2018-08-12T19:02:35.623Z,99278.94
2018-08-12T19:05:05.041Z,99277.47
2018-08-12T19:07:38.800Z,99276.81
2018-08-12T19:10:08.763Z,99274.32
2018-08-12T19:12:37.659Z,99273.50
2018-08-12T19:15:08.301Z,99277.34
2018-08-12T19:17:37.447Z,99280.22
2018-08-12T19:20:07.289Z,99277.73
2018-08-12T19:22:36.358Z,99270.97
2018-08-12T19:25:05.916Z,99279.27
2018-08-12T19:27:35.057Z,99270.23
2018-08-12T19:30:03.971Z,99271.66
2018-08-12T19:32:33.097Z,99280.36
2018-08-12T19:35:02.650Z,99272.48
2018-08-12T19:37:31.333Z,99274.02
2018-08-12T19:40:00.108Z,99264.86
2018-08-12T19:42:29.024Z,99269.28
2018-08-12T19:44:57.895Z,99272.14
2018-08-12T19:47:26.693Z,99276.86
2018-08-12T19:49:55.355Z,99272.36
2018-08-12T19:52:24.089Z,99269.84
2018-08-12T19:54:52.889Z,99266.72
2018-08-12T19:57:21.784Z,99266.80
2018-08-12T19:59:50.442Z,99268.61
2018-08-12T20:02:19.196Z,99270.25
2018-08-12T20:04:48.237Z,99265.38
2018-08-12T20:07:16.892Z,99261.55
2018-08-12T20:09:45.583Z,99264.52
2018-08-12T20:12:14.427Z,99265.91
2018-08-12T20:14:42.961Z,99262.66
2018-08-12T20:17:11.622Z,99257.07
2018-08-12T20:19:40.301Z,99258.36
2018-08-12T20:22:14.813Z,99255.84
2018-08-12T20:24:44.279Z,99256.21
2018-08-12T20:27:13.359Z,99259.40
2018-08-12T20:29:42.168Z,99264.42
2018-08-12T20:32:10.910Z,99261.45
2018-08-12T20:34:39.822Z,99268.11
2018-08-12T20:37:08.625Z,99264.51
2018-08-12T20:39:37.513Z,99262.69
2018-08-12T20:42:06.142Z,99259.86
2018-08-12T20:44:35.058Z,99256.09
2018-08-12T20:47:03.843Z,99259.48
2018-08-12T20:49:32.559Z,99253.25
2018-08-12T20:52:01.365Z,99253.08
2018-08-12T20:54:30.034Z,99251.43
2018-08-12T20:56:58.818Z,99253.97
2018-08-12T20:59:27.763Z,99250.28
2018-08-12T21:01:56.423Z,99254.66
2018-08-12T21:04:25.164Z,99250.00
2018-08-12T21:06:54.038Z,99250.62
2018-08-12T21:09:22.841Z,99246.87
2018-08-12T21:11:51.801Z,99244.73
2018-08-12T21:14:20.621Z,99246.50
2018-08-12T21:16:49.770Z,99249.28
2018-08-12T21:19:18.413Z,99244.27
2018-08-12T21:21:47.077Z,99242.97
2018-08-12T21:24:15.686Z,99241.91
2018-08-12T21:26:50.823Z,99239.17
2018-08-12T21:29:19.514Z,99239.72
2018-08-12T21:31:48.149Z,99237.31
2018-08-12T21:34:16.809Z,99240.60
2018-08-12T21:36:45.455Z,99230.73
2018-08-12T21:39:14.683Z,99228.74
2018-08-12T21:41:43.444Z,99230.20
2018-08-12T21:44:12.040Z,99220.99
2018-08-12T21:46:40.632Z,99220.16
2018-08-12T21:49:09.229Z,99216.61
2018-08-12T21:51:37.840Z,99216.35
2018-08-12T21:54:06.464Z,99220.67
2018-08-12T21:56:35.098Z,99222.77
2018-08-12T21:59:03.753Z,99219.11
2018-08-12T22:01:32.457Z,99219.76
2018-08-12T22:04:01.142Z,99222.36
2018-08-12T22:06:29.810Z,99217.41
2018-08-12T22:08:58.522Z,99218.31
2018-08-12T22:11:28.284Z,99218.08
2018-08-12T22:13:56.918Z,99214.58
2018-08-12T22:16:32.201Z,99215.36
2018-08-12T22:19:00.842Z,99219.87
2018-08-12T22:21:29.501Z,99215.36
2018-08-12T22:23:58.153Z,99208.06
2018-08-12T22:26:26.818Z,99214.98
2018-08-12T22:28:55.465Z,99211.53
2018-08-12T22:31:24.105Z,99211.55
2018-08-12T22:33:52.721Z,99206.00
2018-08-12T22:36:21.439Z,99205.42
2018-08-12T22:38:50.218Z,99210.94
2018-08-12T22:41:18.893Z,99214.09
2018-08-12T22:43:47.568Z,99207.17
2018-08-12T22:46:19.063Z,99209.92
2018-08-12T22:48:47.710Z,99211.53
2018-08-12T22:51:16.322Z,99201.45
2018-08-12T22:53:44.973Z,99192.71
2018-08-12T22:56:13.664Z,99188.59
2018-08-12T22:58:42.294Z,99183.14
2018-08-12T23:01:11.105Z,99183.38
2018-08-12T23:03:39.982Z,99181.20
2018-08-12T23:06:08.734Z,99175.46
2018-08-12T23:08:37.421Z,99180.13
2018-08-12T23:11:06.018Z,99173.74
2018-08-12T23:13:34.607Z,99170.19
2018-08-12T23:16:15.673Z,99161.73
2018-08-12T23:18:44.266Z,99160.42
2018-08-12T23:21:13.764Z,99165.81
2018-08-12T23:23:43.550Z,99163.87
2018-08-12T23:26:14.098Z,99159.25
2018-08-12T23:28:42.793Z,99159.64
2018-08-12T23:31:11.459Z,99156.20
2018-08-12T23:33:45.651Z,99156.43
2018-08-12T23:36:14.411Z,99152.61
2018-08-12T23:38:43.053Z,99151.50
2018-08-12T23:41:12.176Z,99155.52
2018-08-12T23:43:40.936Z,99155.73
2018-08-12T23:46:10.382Z,99152.22
2018-08-12T23:48:39.077Z,99156.20
2018-08-12T23:51:08.066Z,99153.90
2018-08-12T23:53:36.683Z,99150.19
2018-08-12T23:56:05.518Z,99152.20
2018-08-12T23:58:34.301Z,99151.77
